Time;durP1;ratioP1;P1;durP2;ratioP2;P2;SDS_P1;SDS_P2;PMS_P1;PMS_P2;Temp;Humidity;BMP_temperature;BMP_pressure;BME280_temperature;BME280_humidity;BME280_pressure;Samples;Min_cycle;Max_cycle;Signal;HPM_P1;HPM_P2
2022/02/13 00:01:31;;;;;;;6.75;3.67;;;;;;;;;;4955179;28;20133;-66
2022/02/13 00:03:57;;;;;;;8.68;3.63;;;;;;;;;;4959389;28;20462;-63
2022/02/13 00:06:27;;;;;;;6.25;3.60;;;;;;;;;;4971973;28;20042;-61
2022/02/13 00:08:55;;;;;;;7.88;3.45;;;;;;;;;;4989421;28;20038;-61
2022/02/13 00:11:25;;;;;;;14.25;3.45;;;;;;;;;;4959873;28;20034;-61
2022/02/13 00:13:50;;;;;;;10.50;3.22;;;;;;;;;;4973933;28;20124;-62
2022/02/13 00:16:16;;;;;;;20.90;3.75;;;;;;;;;;4970632;28;20503;-62
2022/02/13 00:18:43;;;;;;;8.27;3.78;;;;;;;;;;4974941;28;20041;-61
2022/02/13 00:21:11;;;;;;;6.50;2.97;;;;;;;;;;4989294;28;20052;-62
2022/02/13 00:23:37;;;;;;;11.38;4.57;;;;;;;;;;4971715;28;20042;-61
2022/02/13 00:26:02;;;;;;;10.98;4.13;;;;;;;;;;4957342;28;20041;-62
2022/02/13 00:28:32;;;;;;;9.68;3.80;;;;;;;;;;4989721;28;20037;-61
2022/02/13 00:30:58;;;;;;;10.65;4.00;;;;;;;;;;4969555;28;20044;-62
2022/02/13 00:33:24;;;;;;;16.65;3.80;;;;;;;;;;4951688;28;20042;-62
2022/02/13 00:35:49;;;;;;;10.80;4.10;;;;;;;;;;4972675;28;20069;-61
2022/02/13 00:38:19;;;;;;;10.13;3.70;;;;;;;;;;4970746;28;20040;-62
2022/02/13 00:40:47;;;;;;;9.43;4.18;;;;;;;;;;4989364;28;20111;-61
2022/02/13 00:43:15;;;;;;;13.82;4.13;;;;;;;;;;4951804;28;20065;-61
2022/02/13 00:45:40;;;;;;;7.03;4.15;;;;;;;;;;4988166;28;20042;-63
2022/02/13 00:48:10;;;;;;;11.45;3.63;;;;;;;;;;4955878;28;20140;-59
2022/02/13 00:50:42;;;;;;;8.02;4.00;;;;;;;;;;4986114;28;20030;-61
2022/02/13 00:53:12;;;;;;;11.15;3.55;;;;;;;;;;4969461;28;20388;-61
2022/02/13 00:55:40;;;;;;;4.88;3.00;;;;;;;;;;4968912;28;20625;-60
2022/02/13 00:58:05;;;;;;;5.55;3.08;;;;;;;;;;4954053;28;20037;-61
2022/02/13 01:00:34;;;;;;;11.13;3.78;;;;;;;;;;4972527;28;20038;-61
2022/02/13 01:02:59;;;;;;;12.30;4.13;;;;;;;;;;4986885;28;20037;-62
2022/02/13 01:05:27;;;;;;;6.95;3.40;;;;;;;;;;4968778;28;20034;-61
2022/02/13 01:07:55;;;;;;;12.40;4.97;;;;;;;;;;4974384;28;20077;-61
2022/02/13 01:10:23;;;;;;;8.00;3.33;;;;;;;;;;4989162;28;20753;-61
2022/02/13 01:12:53;;;;;;;6.60;3.45;;;;;;;;;;4970639;28;20078;-61
2022/02/13 01:15:21;;;;;;;4.40;3.08;;;;;;;;;;4949712;28;20031;-60
2022/02/13 01:17:47;;;;;;;10.15;3.58;;;;;;;;;;4949866;28;20035;-60
2022/02/13 01:20:12;;;;;;;11.63;4.60;;;;;;;;;;4945058;28;20058;-61
2022/02/13 01:22:38;;;;;;;11.32;4.03;;;;;;;;;;4947078;28;20042;-61
2022/02/13 01:25:07;;;;;;;15.25;3.88;;;;;;;;;;4950241;28;20134;-62
2022/02/13 01:27:37;;;;;;;10.93;4.07;;;;;;;;;;4949663;28;20038;-61
2022/02/13 01:30:03;;;;;;;5.95;3.13;;;;;;;;;;4931934;28;20449;-61
2022/02/13 01:32:28;;;;;;;10.23;4.13;;;;;;;;;;4949696;28;20055;-62
2022/02/13 01:34:56;;;;;;;7.18;3.83;;;;;;;;;;4950963;28;20121;-61
2022/02/13 01:37:24;;;;;;;11.43;3.30;;;;;;;;;;4946454;28;20035;-62
2022/02/13 01:39:50;;;;;;;15.32;4.32;;;;;;;;;;4949178;28;20045;-61
2022/02/13 01:42:15;;;;;;;10.68;3.88;;;;;;;;;;4946226;28;20058;-62
2022/02/13 01:44:41;;;;;;;11.68;3.50;;;;;;;;;;4946000;28;20118;-60
2022/02/13 01:47:11;;;;;;;7.68;3.65;;;;;;;;;;4948366;28;20053;-60
2022/02/13 01:49:41;;;;;;;7.90;3.35;;;;;;;;;;4947951;28;20694;-61
2022/02/13 01:52:07;;;;;;;7.00;3.75;;;;;;;;;;4947925;28;20675;-60
2022/02/13 01:54:37;;;;;;;11.50;4.03;;;;;;;;;;4950983;28;20037;-60
2022/02/13 01:57:10;;;;;;;10.50;3.63;;;;;;;;;;4949077;28;20041;-60
2022/02/13 01:59:36;;;;;;;12.23;3.88;;;;;;;;;;4960858;28;20098;-60
2022/02/13 02:02:01;;;;;;;9.73;3.00;;;;;;;;;;4948590;28;20038;-60
2022/02/13 02:04:39;;;;;;;8.98;4.18;;;;;;;;;;4949073;28;20035;-60
2022/02/13 02:07:06;;;;;;;4.60;3.22;;;;;;;;;;4946983;28;20065;-60
2022/02/13 02:09:32;;;;;;;8.52;4.00;;;;;;;;;;4949672;28;20113;-60
2022/02/13 02:12:03;;;;;;;15.57;4.53;;;;;;;;;;4949384;28;20039;-61
2022/02/13 02:14:31;;;;;;;9.50;3.53;;;;;;;;;;4949345;28;22127;-61
2022/02/13 02:16:56;;;;;;;11.43;4.00;;;;;;;;;;4944012;28;20390;-59
2022/02/13 02:19:27;;;;;;;6.38;3.50;;;;;;;;;;4948466;28;20022;-60
2022/02/13 02:21:52;;;;;;;19.60;4.30;;;;;;;;;;4946979;28;20041;-60
2022/02/13 02:24:23;;;;;;;8.05;4.07;;;;;;;;;;4949343;28;20146;-59
2022/02/13 02:26:53;;;;;;;12.18;4.05;;;;;;;;;;4950080;28;20485;-60
2022/02/13 02:29:20;;;;;;;9.90;4.18;;;;;;;;;;4929458;28;20034;-60
2022/02/13 02:31:45;;;;;;;11.57;3.75;;;;;;;;;;4944962;28;20046;-60
2022/02/13 02:34:16;;;;;;;9.85;4.35;;;;;;;;;;4946776;28;20070;-61
2022/02/13 02:36:46;;;;;;;10.40;4.50;;;;;;;;;;4947104;28;20038;-60
2022/02/13 02:39:14;;;;;;;8.18;4.10;;;;;;;;;;4932355;28;20050;-60
2022/02/13 02:41:39;;;;;;;9.77;3.50;;;;;;;;;;4943882;28;20166;-60
2022/02/13 02:44:07;;;;;;;7.82;3.47;;;;;;;;;;4944399;28;20630;-59
2022/02/13 02:46:33;;;;;;;8.50;4.05;;;;;;;;;;4945818;28;20039;-59
2022/02/13 02:49:00;;;;;;;12.07;3.75;;;;;;;;;;4948290;28;20920;-61
2022/02/13 02:51:29;;;;;;;15.10;4.43;;;;;;;;;;4948325;28;20041;-61
2022/02/13 02:53:54;;;;;;;5.05;3.38;;;;;;;;;;4948936;28;20042;-62
2022/02/13 02:56:19;;;;;;;12.13;4.32;;;;;;;;;;4930320;28;20031;-61
2022/02/13 02:58:45;;;;;;;8.95;3.90;;;;;;;;;;4945308;28;20049;-60
2022/02/13 03:01:15;;;;;;;7.88;3.92;;;;;;;;;;4947130;28;20034;-60
2022/02/13 03:03:40;;;;;;;13.50;4.63;;;;;;;;;;4944510;28;20121;-63
2022/02/13 03:06:08;;;;;;;8.27;4.10;;;;;;;;;;4947976;28;20027;-61
2022/02/13 03:08:36;;;;;;;13.70;4.40;;;;;;;;;;4946684;28;20038;-60
2022/02/13 03:11:04;;;;;;;19.40;6.15;;;;;;;;;;4943968;28;20073;-60
2022/02/13 03:13:32;;;;;;;10.07;5.05;;;;;;;;;;4947585;28;20038;-60
2022/02/13 03:15:59;;;;;;;10.50;4.10;;;;;;;;;;4944256;28;20035;-60
2022/02/13 03:18:30;;;;;;;13.00;4.75;;;;;;;;;;4951581;28;20054;-60
2022/02/13 03:20:58;;;;;;;13.38;4.88;;;;;;;;;;4948678;28;22313;-59
2022/02/13 03:23:31;;;;;;;16.58;4.25;;;;;;;;;;4945708;28;20065;-60
2022/02/13 03:25:56;;;;;;;12.07;4.35;;;;;;;;;;4945867;28;20054;-60
2022/02/13 03:28:26;;;;;;;12.43;5.18;;;;;;;;;;4947861;28;20031;-61
2022/02/13 03:30:54;;;;;;;13.68;4.30;;;;;;;;;;4932187;28;20031;-60
2022/02/13 03:33:24;;;;;;;14.82;5.50;;;;;;;;;;4946536;28;20240;-60
2022/02/13 03:35:50;;;;;;;9.23;4.57;;;;;;;;;;4948152;28;20038;-60
2022/02/13 03:38:15;;;;;;;8.65;4.50;;;;;;;;;;4943171;28;20049;-60
2022/02/13 03:40:40;;;;;;;13.95;5.28;;;;;;;;;;4944732;28;20034;-60
2022/02/13 03:43:06;;;;;;;9.07;3.83;;;;;;;;;;4928498;28;20537;-60
2022/02/13 03:45:36;;;;;;;12.93;4.85;;;;;;;;;;4947285;28;20764;-60
2022/02/13 03:48:06;;;;;;;13.25;5.15;;;;;;;;;;4933274;28;20022;-60
2022/02/13 03:50:32;;;;;;;11.90;5.00;;;;;;;;;;4932207;28;20153;-60
2022/02/13 03:53:00;;;;;;;17.85;4.80;;;;;;;;;;4950419;28;20034;-60
2022/02/13 03:55:30;;;;;;;12.88;4.63;;;;;;;;;;4950986;28;21939;-60
2022/02/13 03:57:55;;;;;;;12.43;3.80;;;;;;;;;;4951823;28;20059;-60
2022/02/13 04:00:21;;;;;;;10.68;4.47;;;;;;;;;;4951981;28;20557;-59
2022/02/13 04:02:55;;;;;;;17.33;4.60;;;;;;;;;;4964819;28;20169;-60
2022/02/13 04:05:20;;;;;;;12.32;4.60;;;;;;;;;;4950007;28;20030;-61
2022/02/13 04:07:48;;;;;;;10.20;3.97;;;;;;;;;;4951971;28;20054;-60
2022/02/13 04:10:16;;;;;;;9.32;4.35;;;;;;;;;;4950827;28;20065;-60
2022/02/13 04:12:44;;;;;;;10.25;4.97;;;;;;;;;;4949539;28;20055;-60
2022/02/13 04:15:11;;;;;;;7.97;4.38;;;;;;;;;;4965140;28;20034;-60
2022/02/13 04:17:36;;;;;;;11.32;4.57;;;;;;;;;;4950821;28;20045;-59
2022/02/13 04:20:04;;;;;;;14.90;4.90;;;;;;;;;;4948648;28;20910;-60
2022/02/13 04:22:33;;;;;;;12.13;4.13;;;;;;;;;;4945852;28;20041;-60
2022/02/13 04:25:03;;;;;;;6.90;3.65;;;;;;;;;;4947396;28;20038;-60
2022/02/13 04:27:28;;;;;;;12.00;4.03;;;;;;;;;;4948120;28;20058;-59
2022/02/13 04:29:56;;;;;;;18.30;5.20;;;;;;;;;;4950163;28;20042;-61
2022/02/13 04:32:24;;;;;;;14.73;4.35;;;;;;;;;;4931404;28;20539;-59
2022/02/13 04:34:51;;;;;;;11.63;4.13;;;;;;;;;;4946652;28;20031;-61
2022/02/13 04:37:17;;;;;;;9.25;4.18;;;;;;;;;;4946513;28;20098;-59
2022/02/13 04:39:43;;;;;;;12.93;5.30;;;;;;;;;;4950681;28;20053;-61
2022/02/13 04:42:11;;;;;;;9.75;4.20;;;;;;;;;;4951078;28;20553;-61
2022/02/13 04:44:39;;;;;;;13.63;5.10;;;;;;;;;;4950161;28;20031;-62
2022/02/13 04:47:05;;;;;;;14.40;5.80;;;;;;;;;;4945848;28;20038;-59
2022/02/13 04:49:32;;;;;;;14.40;6.60;;;;;;;;;;4963389;28;20682;-61
2022/02/13 04:51:58;;;;;;;19.70;5.65;;;;;;;;;;4949881;28;20173;-59
2022/02/13 04:54:23;;;;;;;11.13;4.35;;;;;;;;;;4951163;28;20035;-59
2022/02/13 04:56:51;;;;;;;10.13;4.43;;;;;;;;;;4950284;28;20027;-61
2022/02/13 04:59:18;;;;;;;10.80;4.55;;;;;;;;;;4951094;28;20040;-60
2022/02/13 05:01:48;;;;;;;9.27;5.47;;;;;;;;;;4947456;28;20675;-60
2022/02/13 05:04:14;;;;;;;9.07;4.32;;;;;;;;;;4950076;28;20085;-60
2022/02/13 05:06:44;;;;;;;17.73;6.40;;;;;;;;;;4916413;28;20051;-60
2022/02/13 05:09:10;;;;;;;14.50;5.70;;;;;;;;;;4950440;28;20414;-60
2022/02/13 05:11:43;;;;;;;9.77;4.90;;;;;;;;;;4933887;28;20047;-60
2022/02/13 05:14:11;;;;;;;13.43;4.43;;;;;;;;;;4988374;28;21932;-60
2022/02/13 05:16:36;;;;;;;7.88;5.00;;;;;;;;;;4954180;28;20044;-60
2022/02/13 05:19:02;;;;;;;15.23;5.38;;;;;;;;;;4991450;28;20123;-59
2022/02/13 05:21:27;;;;;;;10.10;4.88;;;;;;;;;;4956162;28;20038;-60
2022/02/13 05:23:57;;;;;;;10.95;5.20;;;;;;;;;;4988334;28;20041;-60
2022/02/13 05:26:23;;;;;;;7.75;4.97;;;;;;;;;;4988476;28;20091;-60
2022/02/13 05:28:54;;;;;;;10.35;5.55;;;;;;;;;;4988177;28;20492;-61
2022/02/13 05:31:26;;;;;;;11.55;5.28;;;;;;;;;;4969140;28;20120;-61
2022/02/13 05:33:54;;;;;;;9.95;4.43;;;;;;;;;;4989137;28;20065;-60
2022/02/13 05:36:19;;;;;;;13.43;5.13;;;;;;;;;;4988058;28;20038;-61
2022/02/13 05:38:44;;;;;;;10.80;4.63;;;;;;;;;;4968702;28;20044;-60
2022/02/13 05:41:10;;;;;;;15.45;5.90;;;;;;;;;;4969642;28;20046;-60
2022/02/13 05:43:40;;;;;;;12.50;4.82;;;;;;;;;;4986809;28;20076;-60
2022/02/13 05:46:08;;;;;;;13.07;4.88;;;;;;;;;;4970150;28;20052;-60
2022/02/13 05:48:40;;;;;;;16.00;5.50;;;;;;;;;;4969982;28;20164;-60
2022/02/13 05:51:08;;;;;;;9.27;4.43;;;;;;;;;;4987260;28;20021;-60
2022/02/13 05:53:35;;;;;;;14.63;4.97;;;;;;;;;;4967149;28;20061;-61
2022/02/13 05:56:01;;;;;;;12.73;5.43;;;;;;;;;;4950695;28;20707;-62
2022/02/13 05:58:27;;;;;;;13.27;4.60;;;;;;;;;;4967275;28;20034;-60
2022/02/13 06:00:52;;;;;;;10.60;5.15;;;;;;;;;;4986189;28;20033;-61
2022/02/13 06:03:22;;;;;;;10.50;4.95;;;;;;;;;;4986553;28;20034;-59
2022/02/13 06:05:55;;;;;;;11.25;4.70;;;;;;;;;;4985119;28;20030;-59
2022/02/13 06:08:21;;;;;;;10.20;5.35;;;;;;;;;;4966367;28;20061;-60
2022/02/13 06:10:49;;;;;;;10.93;5.53;;;;;;;;;;4989061;28;20034;-60
2022/02/13 06:13:14;;;;;;;11.77;5.10;;;;;;;;;;4965348;28;20112;-61
2022/02/13 06:15:40;;;;;;;14.80;5.47;;;;;;;;;;4968149;28;20065;-60
2022/02/13 06:18:07;;;;;;;9.90;5.45;;;;;;;;;;4966617;28;20035;-60
2022/02/13 06:20:40;;;;;;;12.90;5.28;;;;;;;;;;4967984;28;20109;-60
2022/02/13 06:23:10;;;;;;;12.52;5.50;;;;;;;;;;4963237;28;20130;-60
2022/02/13 06:25:39;;;;;;;13.38;4.63;;;;;;;;;;4969026;28;20042;-60
2022/02/13 06:28:05;;;;;;;12.00;5.10;;;;;;;;;;4964994;28;20050;-61
2022/02/13 06:30:31;;;;;;;11.45;5.25;;;;;;;;;;4968126;28;20059;-60
2022/02/13 06:32:59;;;;;;;12.27;5.88;;;;;;;;;;4967417;28;20181;-60
2022/02/13 06:35:26;;;;;;;9.52;4.88;;;;;;;;;;4951119;28;21023;-60
2022/02/13 06:37:52;;;;;;;11.63;5.82;;;;;;;;;;4969085;28;20522;-60
2022/02/13 06:40:22;;;;;;;13.18;5.32;;;;;;;;;;4980738;28;20035;-59
2022/02/13 06:42:50;;;;;;;8.55;4.72;;;;;;;;;;4968593;28;22027;-60
2022/02/13 06:45:16;;;;;;;9.38;4.38;;;;;;;;;;4966422;28;20118;-60
2022/02/13 06:47:42;;;;;;;12.38;5.05;;;;;;;;;;4966549;28;20044;-60
2022/02/13 06:50:10;;;;;;;10.13;4.40;;;;;;;;;;4941274;28;20144;-61
2022/02/13 06:52:36;;;;;;;12.57;5.47;;;;;;;;;;4945968;28;20518;-60
2022/02/13 06:55:01;;;;;;;13.27;4.90;;;;;;;;;;4947605;28;20034;-60
2022/02/13 06:57:27;;;;;;;11.90;4.43;;;;;;;;;;4966192;28;20038;-60
2022/02/13 07:00:02;;;;;;;8.23;4.20;;;;;;;;;;4962136;28;20031;-60
2022/02/13 07:02:27;;;;;;;11.73;4.53;;;;;;;;;;4962100;28;20052;-62
2022/02/13 07:04:55;;;;;;;11.18;4.82;;;;;;;;;;4964411;28;20035;-61
2022/02/13 07:07:23;;;;;;;8.73;4.25;;;;;;;;;;4979540;28;20133;-60
2022/02/13 07:09:49;;;;;;;12.27;4.63;;;;;;;;;;4948677;28;20034;-60
2022/02/13 07:12:14;;;;;;;11.27;4.15;;;;;;;;;;4970471;28;20065;-60
2022/02/13 07:14:42;;;;;;;8.60;3.95;;;;;;;;;;4984993;28;20674;-61
2022/02/13 07:17:08;;;;;;;9.07;5.00;;;;;;;;;;4966002;28;20065;-60
2022/02/13 07:19:37;;;;;;;12.88;4.20;;;;;;;;;;4987199;28;20954;-60
2022/02/13 07:22:03;;;;;;;8.85;4.35;;;;;;;;;;4955371;28;20045;-60
2022/02/13 07:24:57;;;;;;;13.15;4.43;;;;;;;;;;4949027;28;20061;-60
2022/02/13 07:27:35;;;;;;;10.60;3.75;;;;;;;;;;4976754;28;20034;-61
2022/02/13 07:30:05;;;;;;;12.30;4.35;;;;;;;;;;4994173;28;20777;-61
2022/02/13 07:32:32;;;;;;;14.73;4.28;;;;;;;;;;4960486;28;20113;-61
2022/02/13 07:34:58;;;;;;;20.15;4.57;;;;;;;;;;4966612;28;20119;-63
2022/02/13 07:37:25;;;;;;;9.77;4.15;;;;;;;;;;4979370;28;20032;-60
2022/02/13 07:39:57;;;;;;;11.38;4.70;;;;;;;;;;4978059;28;20030;-59
2022/02/13 07:42:24;;;;;;;8.68;4.53;;;;;;;;;;4996345;28;20160;-61
2022/02/13 07:44:50;;;;;;;8.95;4.55;;;;;;;;;;4996099;28;20060;-61
2022/02/13 07:47:21;;;;;;;8.40;4.40;;;;;;;;;;4978684;28;20066;-61
2022/02/13 07:49:48;;;;;;;9.23;4.53;;;;;;;;;;5000528;28;20057;-61
2022/02/13 07:52:13;;;;;;;9.90;4.85;;;;;;;;;;4977621;28;20038;-62
2022/02/13 07:54:39;;;;;;;10.85;4.80;;;;;;;;;;4963487;28;20053;-60
2022/02/13 07:57:07;;;;;;;9.43;4.57;;;;;;;;;;4977786;28;20076;-59
2022/02/13 07:59:35;;;;;;;19.25;5.13;;;;;;;;;;4971475;28;20054;-59
2022/02/13 08:02:01;;;;;;;9.30;4.68;;;;;;;;;;4994934;28;20030;-59
2022/02/13 08:04:28;;;;;;;12.13;4.47;;;;;;;;;;4973928;28;20454;-62
2022/02/13 08:06:58;;;;;;;12.55;3.95;;;;;;;;;;4954444;28;20038;-60
2022/02/13 08:09:28;;;;;;;10.50;4.45;;;;;;;;;;4971833;28;20983;-61
2022/02/13 08:11:56;;;;;;;9.00;4.28;;;;;;;;;;4976929;28;20054;-59
2022/02/13 08:14:24;;;;;;;7.85;3.78;;;;;;;;;;4970027;28;20027;-60
2022/02/13 08:17:07;;;;;;;17.20;4.97;;;;;;;;;;4942041;28;20046;-60
2022/02/13 08:19:36;;;;;;;9.88;3.90;;;;;;;;;;4959043;28;20511;-60
2022/02/13 08:22:31;;;;;;;15.90;4.20;;;;;;;;;;4934918;28;20050;-61
2022/02/13 08:25:00;;;;;;;9.00;4.15;;;;;;;;;;4960975;28;20046;-60
2022/02/13 08:27:47;;;;;;;7.47;3.70;;;;;;;;;;4954897;28;20057;-59
2022/02/13 08:30:16;;;;;;;6.30;3.40;;;;;;;;;;4957249;28;20046;-60
2022/02/13 08:32:43;;;;;;;13.25;4.18;;;;;;;;;;4957937;28;20043;-60
2022/02/13 08:35:10;;;;;;;10.02;4.03;;;;;;;;;;4958836;28;20042;-60
2022/02/13 08:37:37;;;;;;;7.95;4.28;;;;;;;;;;4962393;28;20387;-60
2022/02/13 08:40:08;;;;;;;7.55;4.47;;;;;;;;;;4941954;28;20034;-60
2022/02/13 08:42:36;;;;;;;8.77;3.65;;;;;;;;;;4963328;28;20450;-60
2022/02/13 08:45:08;;;;;;;9.15;4.07;;;;;;;;;;4968447;28;20097;-60
2022/02/13 08:47:34;;;;;;;6.15;3.70;;;;;;;;;;4941382;28;20182;-59
2022/02/13 08:50:01;;;;;;;11.18;4.50;;;;;;;;;;4939380;28;20545;-61
2022/02/13 08:52:36;;;;;;;9.32;3.55;;;;;;;;;;4959413;28;20749;-60
2022/02/13 08:55:02;;;;;;;9.43;3.58;;;;;;;;;;4972306;28;20114;-59
2022/02/13 08:57:32;;;;;;;10.02;3.60;;;;;;;;;;4963465;28;20113;-60
2022/02/13 09:00:00;;;;;;;10.95;3.85;;;;;;;;;;4953872;28;20026;-60
2022/02/13 09:02:27;;;;;;;8.80;4.03;;;;;;;;;;4950190;28;20491;-62
2022/02/13 09:04:57;;;;;;;6.63;3.88;;;;;;;;;;4954451;28;20019;-62
2022/02/13 09:07:28;;;;;;;6.28;3.92;;;;;;;;;;4970515;28;20401;-62
2022/02/13 09:09:59;;;;;;;10.65;3.78;;;;;;;;;;4971934;28;20767;-61
2022/02/13 09:12:26;;;;;;;6.72;3.63;;;;;;;;;;4974932;28;20091;-61
2022/02/13 09:14:58;;;;;;;8.10;3.92;;;;;;;;;;4988831;28;20030;-62
2022/02/13 09:17:36;;;;;;;11.30;3.83;;;;;;;;;;4995188;28;20035;-61
2022/02/13 09:20:05;;;;;;;6.68;3.42;;;;;;;;;;4969063;28;20048;-61
2022/02/13 09:22:53;;;;;;;8.63;4.40;;;;;;;;;;4991306;28;20057;-61
2022/02/13 09:25:55;;;;;;;11.07;4.18;;;;;;;;;;4975327;28;20049;-61
2022/02/13 09:28:30;;;;;;;8.00;3.78;;;;;;;;;;4990822;28;20013;-61
2022/02/13 09:30:58;;;;;;;7.80;3.88;;;;;;;;;;4987739;28;20072;-62
2022/02/13 09:33:34;;;;;;;6.93;3.38;;;;;;;;;;4969286;28;20092;-61
2022/02/13 09:36:06;;;;;;;7.03;4.20;;;;;;;;;;4974168;28;20072;-60
2022/02/13 09:38:32;;;;;;;5.93;3.70;;;;;;;;;;4962919;28;20034;-61
2022/02/13 09:41:20;;;;;;;7.10;4.30;;;;;;;;;;4968948;28;20095;-61
2022/02/13 09:43:45;;;;;;;6.65;3.55;;;;;;;;;;4991851;28;20409;-62
2022/02/13 09:46:12;;;;;;;8.27;3.85;;;;;;;;;;4988965;28;20463;-62
2022/02/13 09:48:40;;;;;;;6.68;3.65;;;;;;;;;;4976020;28;20036;-62
2022/02/13 09:51:09;;;;;;;9.85;3.92;;;;;;;;;;4976115;28;20034;-61
2022/02/13 09:53:41;;;;;;;7.47;3.85;;;;;;;;;;4976690;28;20176;-63
2022/02/13 09:56:09;;;;;;;10.77;4.13;;;;;;;;;;4959578;28;20492;-64
2022/02/13 09:58:36;;;;;;;7.22;3.70;;;;;;;;;;4971094;28;20029;-62
2022/02/13 10:01:07;;;;;;;11.00;4.10;;;;;;;;;;4987232;28;20878;-62
2022/02/13 10:03:45;;;;;;;8.45;4.53;;;;;;;;;;4976132;28;20561;-62
2022/02/13 10:06:13;;;;;;;12.13;3.83;;;;;;;;;;4987671;28;20021;-62
2022/02/13 10:08:46;;;;;;;6.70;3.70;;;;;;;;;;4968602;28;20030;-62
2022/02/13 10:11:15;;;;;;;6.15;3.55;;;;;;;;;;4991012;28;20745;-63
2022/02/13 10:13:45;;;;;;;12.00;3.65;;;;;;;;;;4986568;28;20057;-63
2022/02/13 10:16:40;;;;;;;7.88;4.07;;;;;;;;;;4982430;28;20037;-62
2022/02/13 10:19:23;;;;;;;5.88;3.20;;;;;;;;;;4972859;28;20085;-62
2022/02/13 10:22:00;;;;;;;14.68;3.85;;;;;;;;;;4983645;28;20030;-62
2022/02/13 10:24:34;;;;;;;8.60;3.58;;;;;;;;;;4972782;28;20093;-62
2022/02/13 10:27:05;;;;;;;7.10;3.40;;;;;;;;;;4987854;28;20057;-62
2022/02/13 10:29:39;;;;;;;6.65;3.70;;;;;;;;;;4994841;28;20421;-62
2022/02/13 10:32:27;;;;;;;11.80;3.92;;;;;;;;;;4964812;28;20480;-62
2022/02/13 10:35:15;;;;;;;8.23;3.60;;;;;;;;;;4959060;28;20041;-62
2022/02/13 10:37:55;;;;;;;7.07;3.67;;;;;;;;;;4976612;28;20397;-62
2022/02/13 10:40:45;;;;;;;9.55;4.07;;;;;;;;;;4988124;28;20144;-61
2022/02/13 10:43:12;;;;;;;7.35;3.85;;;;;;;;;;4936501;28;20033;-61
2022/02/13 10:45:39;;;;;;;7.07;3.47;;;;;;;;;;4985724;28;20687;-62
2022/02/13 10:48:38;;;;;;;8.18;4.00;;;;;;;;;;4979900;28;20157;-61
2022/02/13 10:51:39;;;;;;;11.32;3.88;;;;;;;;;;4979703;28;20049;-62
2022/02/13 10:54:37;;;;;;;6.53;3.08;;;;;;;;;;4986385;28;20122;-65
2022/02/13 10:57:04;;;;;;;7.80;3.60;;;;;;;;;;4982310;28;20073;-62
2022/02/13 10:59:32;;;;;;;9.63;3.45;;;;;;;;;;4982151;28;20044;-62
2022/02/13 11:02:24;;;;;;;6.13;3.30;;;;;;;;;;4982104;28;20025;-62
2022/02/13 11:05:08;;;;;;;;;;;;;;;;;;;;;
2022/02/13 11:08:01;;;;;;;7.15;3.47;;;;;;;;;;4956539;28;20057;-62
2022/02/13 11:10:57;;;;;;;8.90;3.33;;;;;;;;;;5000724;28;20033;-62
2022/02/13 11:13:27;;;;;;;7.63;3.20;;;;;;;;;;4971840;28;20054;-63
2022/02/13 11:15:55;;;;;;;6.70;3.63;;;;;;;;;;4940613;28;20023;-62
2022/02/13 11:18:38;;;;;;;4.10;2.70;;;;;;;;;;4977136;28;20085;-63
2022/02/13 11:21:13;;;;;;;10.35;3.20;;;;;;;;;;4975963;28;20034;-63
2022/02/13 11:23:49;;;;;;;8.10;2.70;;;;;;;;;;4965935;28;20031;-62
2022/02/13 11:26:33;;;;;;;7.55;3.28;;;;;;;;;;4961712;28;20058;-61
2022/02/13 11:29:14;;;;;;;5.80;3.42;;;;;;;;;;4955881;28;20139;-62
2022/02/13 11:31:50;;;;;;;6.63;3.10;;;;;;;;;;4947215;28;20109;-62
2022/02/13 11:34:31;;;;;;;8.05;3.72;;;;;;;;;;4971387;28;20035;-63
2022/02/13 11:37:08;;;;;;;4.97;3.00;;;;;;;;;;4946470;28;20081;-63
2022/02/13 11:39:45;;;;;;;9.55;3.78;;;;;;;;;;4945908;28;20054;-63
2022/02/13 11:42:18;;;;;;;5.38;3.35;;;;;;;;;;4945177;28;20027;-62
2022/02/13 11:44:50;;;;;;;7.93;3.88;;;;;;;;;;4948733;28;20058;-62
2022/02/13 11:47:17;;;;;;;4.75;3.05;;;;;;;;;;4946518;28;20046;-62
2022/02/13 11:50:06;;;;;;;9.90;3.25;;;;;;;;;;4961885;28;20137;-64
2022/02/13 11:55:52;;;;;;;5.75;3.50;;;;;;;;;;4940745;28;20031;-60
2022/02/13 11:58:23;;;;;;;6.47;3.63;;;;;;;;;;4927662;28;20078;-62
2022/02/13 12:00:54;;;;;;;5.95;2.92;;;;;;;;;;4948922;28;20936;-61
2022/02/13 12:03:29;;;;;;;5.57;2.67;;;;;;;;;;4998313;23;20630;-62
2022/02/13 12:06:01;;;;;;;5.22;3.25;;;;;;;;;;5027426;28;20499;-62
2022/02/13 12:08:27;;;;;;;6.15;3.30;;;;;;;;;;5029494;28;20063;-61
2022/02/13 12:11:04;;;;;;;7.60;3.28;;;;;;;;;;5029495;28;20161;-62
2022/02/13 12:13:45;;;;;;;;;;;;;;;;;;5027437;28;20049;-62
2022/02/13 12:16:11;;;;;;;7.90;3.78;;;;;;;;;;5013648;28;19912;-62
2022/02/13 12:18:47;;;;;;;8.07;3.72;;;;;;;;;;5016930;28;20022;-59
2022/02/13 12:21:18;;;;;;;5.70;3.17;;;;;;;;;;5031005;28;20107;-61
2022/02/13 12:23:45;;;;;;;5.40;3.10;;;;;;;;;;5016489;28;20052;-61
2022/02/13 12:26:21;;;;;;;4.65;2.75;;;;;;;;;;5016304;28;20549;-62
2022/02/13 12:28:47;;;;;;;5.35;3.33;;;;;;;;;;5032608;28;20496;-62
2022/02/13 12:31:23;;;;;;;7.60;2.78;;;;;;;;;;5031094;28;20515;-61
2022/02/13 12:33:52;;;;;;;4.40;3.25;;;;;;;;;;5012940;28;20102;-62
2022/02/13 12:36:22;;;;;;;4.80;2.88;;;;;;;;;;5018617;28;20823;-63
2022/02/13 12:38:51;;;;;;;6.80;3.20;;;;;;;;;;5013719;28;20052;-62
2022/02/13 12:41:17;;;;;;;7.15;3.45;;;;;;;;;;5003037;28;20033;-62
2022/02/13 12:43:44;;;;;;;3.92;2.80;;;;;;;;;;5025391;28;20025;-61
2022/02/13 12:46:16;;;;;;;6.38;2.90;;;;;;;;;;5031001;28;20122;-63
2022/02/13 12:48:41;;;;;;;6.68;3.10;;;;;;;;;;5036161;28;20021;-61
2022/02/13 12:51:13;;;;;;;5.28;2.90;;;;;;;;;;5034555;28;20032;-61
2022/02/13 12:53:41;;;;;;;6.15;2.80;;;;;;;;;;5033764;28;20381;-62
2022/02/13 12:56:15;;;;;;;5.65;2.63;;;;;;;;;;5012344;28;20033;-62
2022/02/13 12:58:40;;;;;;;5.10;3.33;;;;;;;;;;5030628;28;20060;-63
2022/02/13 13:01:13;;;;;;;3.95;2.72;;;;;;;;;;5009320;28;20182;-63
2022/02/13 13:04:02;;;;;;;4.43;2.85;;;;;;;;;;4962435;28;20148;-61
2022/02/13 13:06:32;;;;;;;6.63;2.83;;;;;;;;;;4937869;28;20544;-60
2022/02/13 13:08:58;;;;;;;6.38;2.92;;;;;;;;;;4956525;28;20054;-63
2022/02/13 13:11:31;;;;;;;4.30;2.90;;;;;;;;;;4933148;28;20039;-62
2022/02/13 13:14:23;;;;;;;4.45;2.80;;;;;;;;;;4949203;28;20144;-63
2022/02/13 13:16:50;;;;;;;6.68;3.35;;;;;;;;;;4933939;28;20174;-61
2022/02/13 13:23:18;;;;;;;5.07;2.55;;;;;;;;;;4938194;28;20198;-62
2022/02/13 13:25:47;;;;;;;5.47;3.13;;;;;;;;;;4940415;28;20511;-62
2022/02/13 13:28:24;;;;;;;7.18;2.63;;;;;;;;;;4962020;28;20030;-63
2022/02/13 13:31:08;;;;;;;7.70;3.45;;;;;;;;;;4955624;28;20058;-60
2022/02/13 13:34:20;;;;;;;5.25;2.65;;;;;;;;;;4944479;28;20042;-60
2022/02/13 13:36:51;;;;;;;4.38;2.83;;;;;;;;;;5023539;28;20021;-62
2022/02/13 13:39:46;;;;;;;3.78;2.67;;;;;;;;;;5004089;28;20072;-60
2022/02/13 13:42:33;;;;;;;3.80;2.70;;;;;;;;;;4997062;28;20132;-62
2022/02/13 13:45:42;;;;;;;4.88;2.58;;;;;;;;;;4999734;28;20033;-61
2022/02/13 13:48:26;;;;;;;4.90;2.58;;;;;;;;;;4925260;28;20031;-62
2022/02/13 13:55:19;;;;;;;8.40;2.70;;;;;;;;;;4951035;28;20077;-62
2022/02/13 13:57:53;;;;;;;4.57;2.92;;;;;;;;;;4925096;28;20511;-63
2022/02/13 14:00:22;;;;;;;4.32;2.53;;;;;;;;;;4987221;28;20022;-62
2022/02/13 14:02:52;;;;;;;5.13;3.08;;;;;;;;;;5012173;28;20025;-62
2022/02/13 14:05:19;;;;;;;5.97;2.25;;;;;;;;;;5017431;28;20150;-62
2022/02/13 14:07:50;;;;;;;6.03;2.97;;;;;;;;;;4962918;28;20026;-61
2022/02/13 14:10:16;;;;;;;6.53;2.88;;;;;;;;;;4964527;28;20232;-62
2022/02/13 14:15:45;;;;;;;3.58;2.30;;;;;;;;;;4986659;28;20030;-60
2022/02/13 14:18:48;;;;;;;5.20;2.75;;;;;;;;;;4992333;28;20068;-61
2022/02/13 14:22:06;;;;;;;5.65;2.78;;;;;;;;;;4920047;28;20323;-61
2022/02/13 14:24:34;;;;;;;5.35;2.40;;;;;;;;;;4937977;28;20047;-62
2022/02/13 14:27:00;;;;;;;4.30;2.53;;;;;;;;;;4906346;28;20141;-61
2022/02/13 14:29:28;;;;;;;4.28;2.40;;;;;;;;;;4941029;28;20042;-61
2022/02/13 14:31:54;;;;;;;8.13;2.92;;;;;;;;;;4948881;28;20085;-61
2022/02/13 14:34:23;;;;;;;3.60;2.50;;;;;;;;;;4948957;28;20049;-61
2022/02/13 14:40:33;;;;;;;3.53;2.28;;;;;;;;;;4957926;28;20049;-60
2022/02/13 14:43:01;;;;;;;3.85;2.63;;;;;;;;;;4953017;28;20047;-61
2022/02/13 14:45:27;;;;;;;5.13;3.00;;;;;;;;;;4926222;28;21062;-61
2022/02/13 14:47:53;;;;;;;4.43;2.95;;;;;;;;;;4921971;28;20121;-62
2022/02/13 14:50:21;;;;;;;5.03;3.13;;;;;;;;;;4944431;28;20042;-61
2022/02/13 14:52:51;;;;;;;3.78;2.55;;;;;;;;;;4944052;28;20042;-61
2022/02/13 14:55:20;;;;;;;5.38;3.00;;;;;;;;;;4916182;28;20035;-61
2022/02/13 14:57:46;;;;;;;4.28;2.78;;;;;;;;;;4930190;28;20145;-60
2022/02/13 15:00:14;;;;;;;6.03;2.90;;;;;;;;;;4942696;28;21968;-61
2022/02/13 15:02:40;;;;;;;6.40;2.55;;;;;;;;;;4960210;28;20313;-61
2022/02/13 15:05:06;;;;;;;5.80;3.33;;;;;;;;;;4966968;28;20819;-61
2022/02/13 15:07:36;;;;;;;6.95;3.17;;;;;;;;;;4948176;28;20046;-63
2022/02/13 15:10:04;;;;;;;5.18;2.85;;;;;;;;;;4985207;28;20065;-62
2022/02/13 15:12:33;;;;;;;6.38;3.47;;;;;;;;;;4968765;28;20026;-62
2022/02/13 15:15:03;;;;;;;6.57;2.97;;;;;;;;;;4946615;28;20061;-62
2022/02/13 15:17:31;;;;;;;4.97;3.03;;;;;;;;;;4985842;28;20030;-63